createdAt,value
2018-09-02T00:00:04.800Z,14.30
2018-09-02T00:01:04.792Z,17.00
2018-09-02T00:02:04.783Z,10.90
2018-09-02T00:03:04.778Z,11.60
2018-09-02T00:04:04.775Z,12.10
2018-09-02T00:05:04.764Z,13.50
2018-09-02T00:06:04.756Z,12.50
2018-09-02T00:07:04.741Z,12.30
2018-09-02T00:08:04.732Z,14.40
2018-09-02T00:09:04.729Z,12.50
2018-09-02T00:10:04.721Z,13.90
2018-09-02T00:11:04.709Z,13.20
2018-09-02T00:12:04.699Z,11.80
2018-09-02T00:13:04.688Z,15.80
2018-09-02T00:14:04.682Z,15.80
2018-09-02T00:15:04.677Z,18.80
2018-09-02T00:16:04.661Z,12.60
2018-09-02T00:17:04.662Z,13.30
2018-09-02T00:18:04.645Z,17.50
2018-09-02T00:19:04.640Z,18.10
2018-09-02T00:20:04.630Z,17.40
2018-09-02T00:21:04.620Z,17.20
2018-09-02T00:22:04.610Z,13.30
2018-09-02T00:23:04.603Z,16.80
2018-09-02T00:24:04.593Z,16.00
2018-09-02T00:25:04.588Z,17.30
2018-09-02T00:26:04.577Z,12.40
2018-09-02T00:27:04.570Z,12.80
2018-09-02T00:28:04.563Z,15.00
2018-09-02T00:29:04.556Z,15.30
2018-09-02T00:30:04.540Z,15.40
2018-09-02T00:31:04.532Z,15.50
2018-09-02T00:32:04.523Z,19.20
2018-09-02T00:33:04.551Z,15.40
2018-09-02T00:34:04.558Z,17.30
2018-09-02T00:35:04.508Z,19.90
2018-09-02T00:36:04.495Z,16.90
2018-09-02T00:37:04.481Z,17.10
2018-09-02T00:38:04.472Z,16.10
2018-09-02T00:39:04.464Z,16.80
2018-09-02T00:40:04.456Z,18.40
2018-09-02T00:41:04.449Z,16.10
2018-09-02T00:42:04.440Z,15.40
2018-09-02T00:43:04.429Z,16.10
2018-09-02T00:44:04.423Z,14.70
2018-09-02T00:45:04.412Z,18.40
2018-09-02T00:46:04.402Z,18.20
2018-09-02T00:47:04.391Z,19.80
2018-09-02T00:48:04.381Z,17.70
2018-09-02T00:49:04.381Z,16.20
2018-09-02T00:50:04.366Z,21.40
2018-09-02T00:51:04.359Z,14.10
2018-09-02T00:52:04.353Z,17.20
2018-09-02T00:53:04.337Z,16.40
2018-09-02T00:54:04.329Z,19.40
2018-09-02T00:55:04.322Z,18.20
2018-09-02T00:56:04.315Z,19.80
2018-09-02T00:57:04.302Z,18.40
2018-09-02T00:58:04.300Z,16.70
2018-09-02T00:59:04.287Z,19.00
2018-09-02T01:00:04.287Z,14.80
2018-09-02T01:01:04.269Z,16.30
2018-09-02T01:02:04.256Z,19.80
2018-09-02T01:03:04.247Z,16.70
2018-09-02T01:04:04.240Z,16.70
2018-09-02T01:05:04.229Z,15.30
2018-09-02T01:07:04.213Z,15.80
2018-09-02T01:08:04.203Z,16.00
2018-09-02T01:09:04.198Z,16.40
2018-09-02T01:10:04.192Z,18.90
2018-09-02T01:11:04.176Z,18.20
2018-09-02T01:12:04.175Z,17.60
2018-09-02T01:13:04.157Z,16.80
2018-09-02T01:14:04.157Z,20.50
2018-09-02T01:15:04.148Z,17.40
2018-09-02T01:16:04.134Z,21.40
2018-09-02T01:17:04.126Z,16.10
2018-09-02T01:18:04.116Z,15.20
2018-09-02T01:19:04.110Z,18.70
2018-09-02T01:20:04.097Z,16.80
2018-09-02T01:21:04.086Z,15.70
2018-09-02T01:22:04.079Z,17.20
2018-09-02T01:23:04.159Z,15.70
2018-09-02T01:24:04.063Z,14.90
2018-09-02T01:25:04.053Z,19.20
2018-09-02T01:26:04.045Z,19.10
2018-09-02T01:27:04.030Z,17.40
2018-09-02T01:28:04.025Z,16.90
2018-09-02T01:29:04.012Z,17.50
2018-09-02T01:30:04.008Z,18.10
2018-09-02T01:31:04.000Z,15.10
2018-09-02T01:32:03.985Z,14.10
2018-09-02T01:33:03.974Z,15.50
2018-09-02T01:34:03.968Z,16.10
2018-09-02T01:35:03.956Z,18.70
2018-09-02T01:36:03.952Z,17.80
2018-09-02T01:37:03.937Z,17.90
2018-09-02T01:38:03.928Z,17.80
2018-09-02T01:39:03.921Z,14.00
2018-09-02T01:40:03.912Z,15.70
2018-09-02T01:41:03.901Z,13.80
2018-09-02T01:42:03.898Z,16.30
2018-09-02T01:43:03.889Z,15.60
2018-09-02T01:44:03.872Z,20.00
2018-09-02T01:45:03.867Z,17.40
2018-09-02T01:46:03.859Z,17.10
2018-09-02T01:47:03.849Z,20.20
2018-09-02T01:48:03.834Z,16.40
2018-09-02T01:49:03.828Z,16.00
2018-09-02T01:50:03.823Z,18.40
2018-09-02T01:51:03.807Z,19.10
2018-09-02T01:52:03.800Z,17.60
2018-09-02T01:53:03.792Z,19.40
2018-09-02T01:54:03.779Z,17.10
2018-09-02T01:55:03.772Z,16.40
2018-09-02T01:56:03.759Z,17.50
2018-09-02T01:57:03.749Z,19.30
2018-09-02T01:58:03.748Z,17.70
2018-09-02T01:59:03.736Z,18.60
2018-09-02T02:00:03.723Z,16.20
2018-09-02T02:01:03.716Z,21.40
2018-09-02T02:02:03.703Z,16.80
2018-09-02T02:03:03.694Z,17.40
2018-09-02T02:04:03.683Z,19.20
2018-09-02T02:05:03.678Z,14.60
2018-09-02T02:06:03.667Z,18.30
2018-09-02T02:07:03.655Z,16.10
2018-09-02T02:08:03.645Z,14.60
2018-09-02T02:09:03.636Z,13.80
2018-09-02T02:10:03.632Z,18.10
2018-09-02T02:11:03.618Z,18.10
2018-09-02T02:12:03.607Z,15.60
2018-09-02T02:13:03.601Z,16.40
2018-09-02T02:14:03.588Z,17.90
2018-09-02T02:15:03.584Z,17.20
2018-09-02T02:16:03.569Z,15.80
2018-09-02T02:17:03.559Z,15.60
2018-09-02T02:18:03.552Z,20.00
2018-09-02T02:19:03.540Z,19.70
2018-09-02T02:20:03.534Z,18.10
2018-09-02T02:21:03.526Z,16.80
2018-09-02T02:22:03.518Z,16.00
2018-09-02T02:23:03.525Z,17.30
2018-09-02T02:24:03.493Z,14.30
2018-09-02T02:25:03.484Z,17.50
2018-09-02T02:26:03.474Z,18.80
2018-09-02T02:27:03.470Z,21.20
2018-09-02T02:28:03.464Z,20.20
2018-09-02T02:29:03.446Z,14.50
2018-09-02T02:30:03.439Z,15.40
2018-09-02T02:31:03.431Z,16.10
2018-09-02T02:32:03.416Z,15.40
2018-09-02T02:33:03.409Z,15.70
2018-09-02T02:34:03.402Z,16.20
2018-09-02T02:35:03.394Z,15.40
2018-09-02T02:36:03.381Z,17.40
2018-09-02T02:37:03.367Z,14.20
2018-09-02T02:38:03.358Z,14.80
2018-09-02T02:39:03.349Z,14.50
2018-09-02T02:40:03.339Z,14.80
2018-09-02T02:41:03.337Z,14.40
2018-09-02T02:42:03.322Z,12.80
2018-09-02T02:43:03.313Z,14.20
2018-09-02T02:44:03.307Z,14.00
2018-09-02T02:45:03.295Z,17.40
2018-09-02T02:46:03.294Z,12.10
2018-09-02T02:47:03.275Z,16.60
2018-09-02T02:48:03.266Z,16.00
2018-09-02T02:49:03.255Z,15.20
2018-09-02T02:50:03.248Z,15.80
2018-09-02T02:51:03.240Z,12.90
2018-09-02T02:52:03.230Z,12.50
2018-09-02T02:53:03.225Z,13.60
2018-09-02T02:54:03.214Z,14.80
2018-09-02T02:55:03.199Z,17.50
2018-09-02T02:56:03.190Z,13.00
2018-09-02T02:57:03.180Z,14.60
2018-09-02T02:58:03.171Z,15.90
2018-09-02T02:59:03.167Z,15.50
2018-09-02T03:00:03.154Z,16.10
2018-09-02T03:01:03.144Z,15.80
2018-09-02T03:02:03.137Z,12.60
2018-09-02T03:03:03.126Z,11.90
2018-09-02T03:04:03.119Z,13.70
2018-09-02T03:05:03.112Z,15.00
2018-09-02T03:06:03.101Z,17.50
2018-09-02T03:07:03.088Z,16.50
2018-09-02T03:08:03.077Z,15.20
2018-09-02T03:09:03.069Z,16.60
2018-09-02T03:10:03.062Z,14.50
2018-09-02T03:11:03.054Z,14.30
2018-09-02T03:12:03.045Z,16.90
2018-09-02T03:13:03.036Z,18.00
2018-09-02T03:14:03.032Z,15.80
2018-09-02T03:15:03.014Z,20.40
2018-09-02T03:16:03.005Z,15.70
2018-09-02T03:17:03.005Z,14.40
2018-09-02T03:18:02.986Z,15.80
2018-09-02T03:19:02.976Z,15.00
2018-09-02T03:20:02.969Z,14.10
2018-09-02T03:21:02.957Z,15.70
2018-09-02T03:22:02.954Z,11.60
2018-09-02T03:23:02.944Z,13.70
2018-09-02T03:24:02.941Z,20.30
2018-09-02T03:25:02.921Z,13.40
2018-09-02T03:26:02.910Z,14.70
2018-09-02T03:27:02.906Z,14.10
2018-09-02T03:28:02.896Z,16.80
2018-09-02T03:29:02.885Z,12.20
2018-09-02T03:30:02.874Z,17.00
2018-09-02T03:31:02.868Z,14.50
2018-09-02T03:32:02.858Z,15.30
2018-09-02T03:33:02.846Z,12.50
2018-09-02T03:34:02.838Z,15.60
2018-09-02T03:35:02.836Z,13.00
2018-09-02T03:36:02.819Z,15.60
2018-09-02T03:37:02.813Z,13.90
2018-09-02T03:38:02.802Z,20.10
2018-09-02T03:39:02.794Z,12.50
2018-09-02T03:40:02.781Z,14.00
2018-09-02T03:41:02.779Z,15.20
2018-09-02T03:42:02.765Z,15.10
2018-09-02T03:43:02.751Z,11.50
2018-09-02T03:44:02.746Z,12.10
2018-09-02T03:45:02.732Z,10.40
2018-09-02T03:46:02.725Z,11.10
2018-09-02T03:47:02.716Z,12.00
2018-09-02T03:48:02.706Z,13.80
2018-09-02T03:49:02.701Z,14.60
2018-09-02T03:50:02.687Z,17.00
2018-09-02T03:51:02.682Z,11.80
2018-09-02T03:52:02.676Z,14.40
2018-09-02T03:53:02.665Z,14.30
2018-09-02T03:54:02.651Z,13.20
2018-09-02T03:55:02.647Z,14.10
2018-09-02T03:56:02.637Z,13.60
2018-09-02T03:57:02.625Z,15.20
2018-09-02T03:58:02.619Z,13.70
2018-09-02T03:59:02.611Z,15.90
2018-09-02T04:00:02.599Z,11.20
2018-09-02T04:01:02.598Z,11.20
2018-09-02T04:02:02.583Z,18.60
2018-09-02T04:03:02.568Z,14.60
2018-09-02T04:04:02.564Z,12.50
2018-09-02T04:05:02.551Z,13.00
2018-09-02T04:06:02.541Z,12.10
2018-09-02T04:07:02.533Z,14.30
2018-09-02T04:08:02.522Z,13.80
2018-09-02T04:09:02.512Z,12.50
2018-09-02T04:10:02.505Z,15.60
2018-09-02T04:11:02.502Z,15.00
2018-09-02T04:12:02.484Z,15.70
2018-09-02T04:13:02.481Z,12.30
2018-09-02T04:14:02.467Z,18.00
2018-09-02T04:15:02.457Z,17.50
2018-09-02T04:16:02.450Z,15.10
2018-09-02T04:17:02.443Z,16.40
2018-09-02T04:18:02.435Z,14.30
2018-09-02T04:19:02.424Z,14.30
2018-09-02T04:20:02.418Z,17.70
2018-09-02T04:21:02.404Z,17.60
2018-09-02T04:22:02.396Z,12.90
2018-09-02T04:23:02.389Z,12.60
2018-09-02T04:24:02.380Z,14.20
2018-09-02T04:25:02.365Z,14.00
2018-09-02T04:26:02.355Z,16.30
2018-09-02T04:27:02.349Z,14.60
2018-09-02T04:28:02.337Z,16.30
2018-09-02T04:29:02.330Z,14.30
2018-09-02T04:30:02.323Z,17.20
2018-09-02T04:31:02.313Z,13.60
2018-09-02T04:32:02.299Z,13.90
2018-09-02T04:33:02.292Z,14.60
2018-09-02T04:34:02.286Z,15.90
2018-09-02T04:35:02.278Z,13.10
2018-09-02T04:36:02.263Z,13.80
2018-09-02T04:37:02.254Z,14.80
2018-09-02T04:38:02.246Z,16.30
2018-09-02T04:39:02.241Z,16.30
2018-09-02T04:40:02.225Z,15.10
2018-09-02T04:41:02.218Z,13.70
2018-09-02T04:42:02.213Z,13.10
2018-09-02T04:43:02.205Z,14.70
2018-09-02T04:44:02.192Z,17.50
2018-09-02T04:45:02.186Z,16.80
2018-09-02T04:46:02.170Z,15.20
2018-09-02T04:47:02.161Z,15.40
2018-09-02T04:48:02.154Z,13.50
2018-09-02T04:49:02.148Z,12.90
2018-09-02T04:50:02.138Z,13.30
2018-09-02T04:51:02.125Z,14.30
2018-09-02T04:52:02.117Z,14.10
2018-09-02T04:53:02.108Z,12.70
2018-09-02T04:54:02.097Z,13.50
2018-09-02T04:55:02.086Z,13.00
2018-09-02T04:56:02.075Z,11.50
2018-09-02T04:57:02.069Z,15.60
2018-09-02T04:58:02.060Z,13.80
2018-09-02T04:59:02.052Z,13.10
2018-09-02T05:00:02.038Z,12.60
2018-09-02T05:01:02.029Z,14.20
2018-09-02T05:02:02.025Z,13.30
2018-09-02T05:03:02.015Z,12.00
2018-09-02T05:04:02.007Z,19.80
2018-09-02T05:05:01.998Z,12.20
2018-09-02T05:06:01.983Z,12.20
2018-09-02T05:07:01.974Z,13.00
2018-09-02T05:08:01.963Z,13.90
2018-09-02T05:09:01.956Z,15.40
2018-09-02T05:10:01.951Z,17.40
2018-09-02T05:11:01.944Z,14.20
2018-09-02T05:12:01.933Z,15.80
2018-09-02T05:13:01.919Z,11.30
2018-09-02T05:14:01.927Z,11.50
2018-09-02T05:15:01.905Z,13.40
2018-09-02T05:16:01.892Z,15.60
2018-09-02T05:17:01.885Z,15.20
2018-09-02T05:18:01.878Z,19.20
2018-09-02T05:19:01.864Z,13.70
2018-09-02T05:20:01.857Z,14.80
2018-09-02T05:21:01.850Z,12.90
2018-09-02T05:22:01.835Z,14.20
2018-09-02T05:23:01.830Z,13.40
2018-09-02T05:24:01.822Z,14.90
2018-09-02T05:25:01.815Z,15.00
2018-09-02T05:26:01.798Z,14.10
2018-09-02T05:27:01.791Z,15.70
2018-09-02T05:28:01.786Z,14.10
2018-09-02T05:29:01.771Z,15.90
2018-09-02T05:30:01.763Z,16.70
2018-09-02T05:31:01.754Z,12.40
2018-09-02T05:32:01.747Z,16.90
2018-09-02T05:33:01.734Z,17.20
2018-09-02T05:34:01.730Z,14.90
2018-09-02T05:35:01.717Z,16.20
2018-09-02T05:36:01.708Z,14.90
2018-09-02T05:37:01.804Z,16.30
2018-09-02T05:38:01.693Z,15.90
2018-09-02T05:39:01.679Z,14.50
2018-09-02T05:40:01.676Z,17.00
2018-09-02T05:41:01.666Z,14.90
2018-09-02T05:42:01.652Z,16.00
2018-09-02T05:43:01.643Z,13.70
2018-09-02T05:44:01.714Z,12.90
2018-09-02T05:45:01.623Z,18.90
2018-09-02T05:46:01.617Z,16.20
2018-09-02T05:47:01.606Z,13.80
2018-09-02T05:48:01.601Z,12.80
2018-09-02T05:49:01.587Z,16.10
2018-09-02T05:50:01.584Z,13.90
2018-09-02T05:51:01.575Z,13.30
2018-09-02T05:52:01.559Z,11.70
2018-09-02T05:53:01.553Z,17.50
2018-09-02T05:54:01.546Z,14.20
2018-09-02T05:55:01.533Z,13.80
2018-09-02T05:56:01.526Z,13.40
2018-09-02T05:57:01.519Z,21.80
2018-09-02T05:58:01.508Z,15.90
2018-09-02T05:59:01.496Z,15.50
2018-09-02T06:00:01.491Z,13.70
2018-09-02T06:01:01.483Z,18.30
2018-09-02T06:02:01.470Z,16.50
2018-09-02T06:03:01.457Z,14.20
2018-09-02T06:04:01.454Z,16.00
2018-09-02T06:05:01.453Z,18.20
2018-09-02T06:06:01.442Z,14.50
2018-09-02T06:07:01.425Z,16.10
2018-09-02T06:08:01.414Z,16.10
2018-09-02T06:09:01.414Z,13.30
2018-09-02T06:10:01.397Z,14.60
2018-09-02T06:11:01.384Z,16.70
2018-09-02T06:12:01.381Z,15.10
2018-09-02T06:13:01.366Z,13.20
2018-09-02T06:14:01.365Z,14.20
2018-09-02T06:15:01.354Z,15.30
2018-09-02T06:16:01.338Z,12.70
2018-09-02T06:17:01.332Z,16.90
2018-09-02T06:18:01.321Z,13.40
2018-09-02T06:19:01.312Z,12.70
2018-09-02T06:20:01.302Z,14.20
2018-09-02T06:21:01.296Z,13.30
2018-09-02T06:22:01.291Z,14.70
2018-09-02T06:23:01.277Z,14.80
2018-09-02T06:24:01.270Z,11.60
2018-09-02T06:25:01.261Z,13.20
2018-09-02T06:26:01.251Z,16.40
2018-09-02T06:27:01.241Z,12.30
2018-09-02T06:28:01.233Z,14.70
2018-09-02T06:29:01.222Z,15.40
2018-09-02T06:30:01.256Z,12.80
2018-09-02T06:31:01.205Z,14.00
2018-09-02T06:32:01.194Z,15.00
2018-09-02T06:33:01.316Z,11.30
2018-09-02T06:34:01.176Z,15.70
2018-09-02T06:35:01.169Z,11.90
2018-09-02T06:36:01.163Z,14.10
2018-09-02T06:37:01.152Z,16.10
2018-09-02T06:38:01.143Z,12.20
2018-09-02T06:39:01.130Z,16.20
2018-09-02T06:40:01.140Z,17.50
2018-09-02T06:41:01.119Z,13.30
2018-09-02T06:42:01.106Z,12.40
2018-09-02T06:43:01.100Z,14.70
2018-09-02T06:44:01.083Z,15.50
2018-09-02T06:45:01.075Z,15.90
2018-09-02T06:46:01.072Z,14.40
2018-09-02T06:47:01.063Z,16.80
2018-09-02T06:48:01.050Z,13.20
2018-09-02T06:49:01.042Z,12.60
2018-09-02T06:50:01.036Z,15.10
2018-09-02T06:51:01.023Z,13.30
2018-09-02T06:52:01.016Z,14.30
2018-09-02T06:53:01.005Z,12.50
2018-09-02T06:54:00.996Z,10.50
2018-09-02T06:55:00.985Z,13.20
2018-09-02T06:56:00.980Z,11.80
2018-09-02T06:57:00.968Z,13.40
2018-09-02T06:58:00.958Z,12.80
2018-09-02T06:59:00.948Z,16.00
2018-09-02T07:00:00.944Z,10.00
2018-09-02T07:01:00.935Z,13.70
2018-09-02T07:02:00.923Z,14.00
2018-09-02T07:03:00.912Z,14.20
2018-09-02T07:04:00.912Z,12.20
2018-09-02T07:05:00.899Z,12.20
2018-09-02T07:06:00.884Z,12.30
2018-09-02T07:07:00.876Z,12.70
2018-09-02T07:08:00.870Z,14.50
2018-09-02T07:09:00.863Z,10.60
2018-09-02T07:10:00.851Z,12.60
2018-09-02T07:11:00.840Z,12.00
2018-09-02T07:12:00.834Z,12.20
2018-09-02T07:13:00.821Z,14.20
2018-09-02T07:14:00.821Z,13.30
2018-09-02T07:15:00.810Z,13.50
2018-09-02T07:16:00.795Z,12.30
2018-09-02T07:17:00.787Z,11.20
2018-09-02T07:18:00.779Z,10.30
2018-09-02T07:19:00.774Z,11.90
2018-09-02T07:20:00.804Z,10.80
2018-09-02T07:21:00.749Z,13.20
2018-09-02T07:22:00.742Z,10.90
2018-09-02T07:23:00.736Z,11.40
2018-09-02T07:24:00.724Z,11.30
2018-09-02T07:25:00.719Z,11.90
2018-09-02T07:26:00.708Z,10.50
2018-09-02T07:27:00.697Z,14.00
2018-09-02T07:28:00.694Z,14.20
2018-09-02T07:29:00.680Z,11.30
2018-09-02T07:30:00.672Z,12.30
2018-09-02T07:31:00.666Z,12.30
2018-09-02T07:32:00.659Z,13.30
2018-09-02T07:33:00.645Z,12.40
2018-09-02T07:34:00.642Z,10.10
2018-09-02T07:35:00.629Z,11.00
2018-09-02T07:36:00.619Z,9.90
2018-09-02T07:37:00.611Z,11.00
2018-09-02T07:38:00.609Z,11.50
2018-09-02T07:39:00.601Z,13.90
2018-09-02T07:40:00.592Z,12.50
2018-09-02T07:41:00.584Z,10.70
2018-09-02T07:42:00.571Z,12.40
2018-09-02T07:43:00.567Z,8.60
2018-09-02T07:44:00.600Z,10.00
2018-09-02T07:45:00.546Z,11.50
2018-09-02T07:46:00.541Z,12.60
2018-09-02T07:47:00.530Z,9.60
2018-09-02T07:48:00.520Z,12.00
2018-09-02T07:49:00.519Z,11.00
2018-09-02T07:50:00.501Z,12.60
2018-09-02T07:51:00.494Z,9.20
2018-09-02T07:52:00.490Z,12.80
2018-09-02T07:53:00.482Z,9.20
2018-09-02T07:54:00.469Z,11.30
2018-09-02T07:55:00.459Z,10.90
2018-09-02T07:56:00.453Z,9.80
2018-09-02T07:57:00.450Z,10.90
2018-09-02T07:58:00.433Z,8.90
2018-09-02T07:59:00.427Z,8.90
2018-09-02T08:00:00.420Z,11.30
2018-09-02T08:01:00.415Z,9.80
2018-09-02T08:02:00.401Z,11.00
2018-09-02T08:03:00.396Z,9.20
2018-09-02T08:04:00.384Z,8.80
2018-09-02T08:05:00.381Z,9.50
2018-09-02T08:06:00.369Z,8.10
2018-09-02T08:07:00.359Z,10.60
2018-09-02T08:08:00.356Z,9.10
2018-09-02T08:09:00.349Z,10.60
2018-09-02T08:10:00.337Z,10.20
2018-09-02T08:11:00.326Z,8.90
2018-09-02T08:12:00.326Z,11.00
2018-09-02T08:13:00.355Z,8.30
2018-09-02T08:14:00.306Z,9.40
2018-09-02T08:15:00.294Z,10.40
2018-09-02T08:16:00.289Z,10.10
2018-09-02T08:17:00.277Z,10.90
2018-09-02T08:18:00.268Z,10.60
2018-09-02T08:19:00.265Z,8.70
2018-09-02T08:20:00.355Z,10.90
2018-09-02T08:21:00.246Z,11.30
2018-09-02T08:22:00.236Z,9.70
2018-09-02T08:23:00.229Z,10.90
2018-09-02T08:24:00.223Z,9.80
2018-09-02T08:25:00.210Z,11.60
2018-09-02T08:26:00.209Z,9.70
2018-09-02T08:27:00.196Z,11.20
2018-09-02T08:28:00.189Z,8.90
2018-09-02T08:29:00.185Z,9.70
2018-09-02T08:30:00.175Z,8.00
2018-09-02T08:31:00.165Z,8.70
2018-09-02T08:32:00.153Z,10.30
2018-09-02T08:33:00.155Z,8.40
2018-09-02T08:34:00.138Z,8.70
2018-09-02T08:35:00.133Z,10.70
2018-09-02T08:36:00.121Z,10.10
2018-09-02T08:37:00.113Z,8.80
2018-09-02T08:38:00.105Z,9.80
2018-09-02T08:39:00.131Z,10.30
2018-09-02T08:40:00.088Z,11.70
2018-09-02T08:41:00.080Z,10.50
2018-09-02T08:42:00.072Z,10.30
2018-09-02T08:43:00.068Z,10.70
2018-09-02T08:44:00.056Z,8.80
2018-09-02T08:45:00.049Z,8.50
2018-09-02T08:46:00.043Z,10.30
2018-09-02T08:47:00.036Z,10.60
2018-09-02T08:48:00.027Z,9.60
2018-09-02T08:49:00.021Z,11.20
2018-09-02T08:50:00.009Z,10.90
2018-09-02T08:50:59.999Z,13.70
2018-09-02T08:51:59.990Z,12.50
2018-09-02T08:52:59.985Z,9.50
2018-09-02T08:53:59.974Z,12.90
2018-09-02T08:54:59.972Z,8.20
2018-09-02T08:56:00.036Z,11.10
2018-09-02T08:56:59.957Z,11.80
2018-09-02T08:57:59.942Z,10.30
2018-09-02T08:58:59.935Z,11.30
2018-09-02T08:59:59.926Z,11.80
2018-09-02T09:00:59.919Z,10.80
2018-09-02T09:01:59.915Z,11.10
2018-09-02T09:02:59.903Z,9.50
2018-09-02T09:03:59.900Z,10.30
2018-09-02T09:04:59.890Z,11.00
2018-09-02T09:05:59.879Z,11.40
2018-09-02T09:06:59.878Z,9.20
2018-09-02T09:07:59.980Z,12.70
2018-09-02T09:09:00.034Z,14.90
2018-09-02T09:09:59.852Z,10.10
2018-09-02T09:10:59.846Z,11.10
2018-09-02T09:11:59.837Z,8.60
2018-09-02T09:12:59.832Z,8.70
2018-09-02T09:13:59.861Z,9.00
2018-09-02T09:14:59.815Z,10.20
2018-09-02T09:15:59.811Z,8.70
2018-09-02T09:16:59.821Z,11.20
2018-09-02T09:17:59.796Z,8.70
2018-09-02T09:18:59.789Z,8.50
2018-09-02T09:19:59.786Z,11.20
2018-09-02T09:20:59.767Z,12.00
2018-09-02T09:21:59.762Z,11.20
2018-09-02T09:22:59.757Z,10.00
2018-09-02T09:23:59.792Z,7.80
2018-09-02T09:24:59.769Z,9.20
2018-09-02T09:25:59.733Z,10.60
2018-09-02T09:26:59.724Z,11.30
2018-09-02T09:27:59.718Z,10.10
2018-09-02T09:28:59.715Z,9.20
2018-09-02T09:29:59.704Z,8.40
2018-09-02T09:30:59.697Z,9.30
2018-09-02T09:31:59.689Z,9.40
2018-09-02T09:32:59.683Z,10.80
2018-09-02T09:33:59.679Z,8.70
2018-09-02T09:34:59.665Z,10.80
2018-09-02T09:35:59.661Z,9.30
2018-09-02T09:36:59.652Z,10.00
2018-09-02T09:37:59.643Z,9.20
2018-09-02T09:38:59.638Z,9.10
2018-09-02T09:39:59.628Z,12.80
2018-09-02T09:40:59.625Z,10.10
2018-09-02T09:41:59.619Z,8.50
2018-09-02T09:42:59.605Z,9.20
2018-09-02T09:43:59.598Z,10.20
2018-09-02T09:44:59.595Z,8.90
2018-09-02T09:45:59.636Z,9.10
2018-09-02T09:46:59.574Z,9.50
2018-09-02T09:47:59.565Z,10.10
2018-09-02T09:48:59.557Z,10.90
2018-09-02T09:49:59.558Z,9.40
2018-09-02T09:50:59.546Z,7.70
2018-09-02T09:51:59.540Z,8.50
2018-09-02T09:52:59.533Z,8.00
2018-09-02T09:53:59.520Z,8.20
2018-09-02T09:54:59.520Z,9.00
2018-09-02T09:55:59.507Z,8.90
2018-09-02T09:56:59.504Z,8.40
2018-09-02T09:57:59.495Z,9.30
2018-09-02T09:58:59.489Z,8.70
2018-09-02T09:59:59.477Z,9.90
2018-09-02T10:00:59.469Z,9.70
2018-09-02T10:01:59.467Z,7.70
2018-09-02T10:02:59.455Z,6.90
2018-09-02T10:03:59.453Z,9.30
2018-09-02T10:04:59.439Z,8.50
2018-09-02T10:05:59.434Z,9.80
2018-09-02T10:06:59.425Z,8.20
2018-09-02T10:07:59.420Z,9.50
2018-09-02T10:08:59.417Z,8.80
2018-09-02T10:09:59.414Z,8.90
2018-09-02T10:10:59.399Z,8.50
2018-09-02T10:11:59.391Z,9.50
2018-09-02T10:12:59.384Z,8.80
2018-09-02T10:13:59.375Z,10.90
2018-09-02T10:14:59.367Z,9.20
2018-09-02T10:15:59.359Z,7.70
2018-09-02T10:16:59.351Z,8.30
2018-09-02T10:17:59.372Z,7.90
2018-09-02T10:18:59.345Z,8.00
2018-09-02T10:19:59.337Z,7.60
2018-09-02T10:20:59.321Z,8.40
2018-09-02T10:21:59.320Z,7.20
2018-09-02T10:22:59.308Z,8.60
2018-09-02T10:23:59.300Z,7.50
2018-09-02T10:24:59.293Z,12.40
2018-09-02T10:25:59.289Z,7.50
2018-09-02T10:26:59.281Z,7.90
2018-09-02T10:27:59.274Z,8.20
2018-09-02T10:28:59.267Z,8.20
2018-09-02T10:29:59.260Z,7.20
2018-09-02T10:30:59.256Z,8.10
2018-09-02T10:31:59.248Z,6.70
2018-09-02T10:32:59.235Z,7.50
2018-09-02T10:33:59.228Z,10.20
2018-09-02T10:34:59.225Z,8.30
2018-09-02T10:35:59.219Z,6.60
2018-09-02T10:36:59.210Z,9.30
2018-09-02T10:37:59.206Z,9.30
2018-09-02T10:38:59.198Z,10.30
2018-09-02T10:39:59.188Z,8.10
2018-09-02T10:40:59.203Z,8.60
2018-09-02T10:41:59.174Z,7.50
2018-09-02T10:42:59.165Z,6.70
2018-09-02T10:43:59.156Z,7.20
2018-09-02T10:44:59.150Z,7.00
2018-09-02T10:45:59.143Z,6.90
2018-09-02T10:46:59.137Z,8.50
2018-09-02T10:47:59.135Z,7.30
2018-09-02T10:48:59.125Z,8.20
2018-09-02T10:49:59.117Z,9.00
2018-09-02T10:50:59.120Z,9.00
2018-09-02T10:51:59.106Z,6.50
2018-09-02T10:52:59.100Z,7.80
2018-09-02T10:53:59.089Z,6.90
2018-09-02T10:54:59.081Z,5.90
2018-09-02T10:55:59.078Z,6.70
2018-09-02T10:56:59.122Z,6.80
2018-09-02T10:57:59.061Z,6.60
2018-09-02T10:58:59.057Z,6.80
2018-09-02T10:59:59.051Z,9.20
2018-09-02T11:00:59.043Z,7.40
2018-09-02T11:01:59.031Z,6.60
2018-09-02T11:02:59.028Z,6.50
2018-09-02T11:03:59.021Z,6.80
2018-09-02T11:04:59.013Z,6.20
2018-09-02T11:05:59.009Z,6.80
2018-09-02T11:06:58.999Z,6.40
2018-09-02T11:07:58.994Z,6.60
2018-09-02T11:08:58.985Z,7.10
2018-09-02T11:09:58.978Z,8.60
2018-09-02T11:10:58.971Z,5.60
2018-09-02T11:11:58.964Z,7.80
2018-09-02T11:12:58.971Z,5.80
2018-09-02T11:13:59.070Z,7.10
2018-09-02T11:14:58.939Z,7.10
2018-09-02T11:15:58.935Z,6.30
2018-09-02T11:16:58.927Z,6.20
2018-09-02T11:17:58.920Z,5.50
2018-09-02T11:18:58.911Z,6.40
2018-09-02T11:19:58.904Z,7.40
2018-09-02T11:20:58.905Z,9.00
2018-09-02T11:21:58.889Z,6.20
2018-09-02T11:22:58.885Z,6.70
2018-09-02T11:23:58.879Z,6.30
2018-09-02T11:24:58.880Z,5.40
2018-09-02T11:25:58.864Z,7.60
2018-09-02T11:26:58.856Z,7.50
2018-09-02T11:27:58.848Z,6.90
2018-09-02T11:28:58.840Z,6.60
2018-09-02T11:29:58.836Z,5.50
2018-09-02T11:30:58.835Z,5.30
2018-09-02T11:31:58.825Z,5.80
2018-09-02T11:32:58.817Z,10.00
2018-09-02T11:33:58.845Z,6.40
2018-09-02T11:34:58.807Z,6.60
2018-09-02T11:35:58.800Z,7.50
2018-09-02T11:36:58.789Z,6.80
2018-09-02T11:37:58.782Z,6.40
2018-09-02T11:38:58.782Z,8.60
2018-09-02T11:39:58.773Z,6.40
2018-09-02T11:40:58.762Z,6.50
2018-09-02T11:41:58.761Z,7.30
2018-09-02T11:42:58.760Z,7.30
2018-09-02T11:43:58.746Z,7.70
2018-09-02T11:44:58.769Z,5.90
2018-09-02T11:45:58.730Z,5.60
2018-09-02T11:46:58.792Z,5.60
2018-09-02T11:47:58.721Z,5.70
2018-09-02T11:48:58.716Z,6.80
2018-09-02T11:49:58.708Z,6.90
2018-09-02T11:50:58.702Z,6.40
2018-09-02T11:51:58.693Z,6.60
2018-09-02T11:52:58.689Z,4.50
2018-09-02T11:53:58.680Z,6.30
2018-09-02T11:54:58.671Z,5.40
2018-09-02T11:55:58.663Z,5.60
2018-09-02T11:56:58.661Z,7.60
2018-09-02T11:57:58.656Z,5.50
2018-09-02T11:58:58.647Z,5.70
2018-09-02T11:59:58.637Z,5.70
2018-09-02T12:00:58.637Z,4.00
2018-09-02T12:01:58.629Z,6.00
2018-09-02T12:02:58.620Z,4.60
2018-09-02T12:03:58.629Z,4.80
2018-09-02T12:04:58.701Z,5.10
2018-09-02T12:05:58.605Z,4.00
2018-09-02T12:06:58.594Z,4.30
2018-09-02T12:07:58.590Z,5.40
2018-09-02T12:08:58.593Z,3.90
2018-09-02T12:09:58.577Z,4.00
2018-09-02T12:10:58.576Z,5.50
2018-09-02T12:11:58.568Z,4.50
2018-09-02T12:12:58.557Z,3.30
2018-09-02T12:13:58.603Z,5.20
2018-09-02T12:14:58.693Z,5.60
2018-09-02T12:15:58.538Z,7.00
2018-09-02T12:16:58.536Z,5.80
2018-09-02T12:17:58.527Z,4.90
2018-09-02T12:18:58.520Z,3.20
2018-09-02T12:19:58.520Z,3.30
2018-09-02T12:20:58.512Z,4.60
2018-09-02T12:21:58.504Z,3.90
2018-09-02T12:22:58.495Z,5.40
2018-09-02T12:23:58.488Z,6.10
2018-09-02T12:24:58.482Z,3.90
2018-09-02T12:25:58.478Z,3.30
2018-09-02T12:26:58.475Z,3.70
2018-09-02T12:27:58.468Z,3.50
2018-09-02T12:28:58.462Z,5.20
2018-09-02T12:29:58.451Z,3.80
2018-09-02T12:30:58.449Z,5.50
2018-09-02T12:31:58.437Z,3.50
2018-09-02T12:32:58.432Z,4.50
2018-09-02T12:33:58.431Z,4.20
2018-09-02T12:34:58.420Z,5.30
2018-09-02T12:35:58.414Z,4.40
2018-09-02T12:36:58.407Z,3.10
2018-09-02T12:37:58.401Z,3.70
2018-09-02T12:38:58.394Z,4.90
2018-09-02T12:39:58.396Z,5.10
2018-09-02T12:40:58.381Z,3.70
2018-09-02T12:41:58.381Z,5.60
2018-09-02T12:42:58.375Z,2.90
2018-09-02T12:43:58.370Z,3.60
2018-09-02T12:44:58.363Z,3.70
2018-09-02T12:45:58.352Z,2.90
2018-09-02T12:46:58.345Z,3.50
2018-09-02T12:47:58.534Z,3.70
2018-09-02T12:48:58.333Z,4.10
2018-09-02T12:49:58.330Z,3.80
2018-09-02T12:50:58.324Z,3.00
2018-09-02T12:51:58.314Z,4.30
2018-09-02T12:52:58.310Z,4.30
2018-09-02T12:53:58.307Z,4.00
2018-09-02T12:54:58.303Z,3.10
2018-09-02T12:55:58.290Z,3.60
2018-09-02T12:56:58.285Z,3.20
2018-09-02T12:57:58.281Z,3.20
2018-09-02T12:58:58.274Z,4.90
2018-09-02T12:59:58.270Z,3.60
2018-09-02T13:00:58.279Z,3.60